createdAt,value
2022-11-30T00:01:15.288Z,13.95
2022-11-30T00:03:42.668Z,14.25
2022-11-30T00:06:12.678Z,14.13
2022-11-30T00:08:39.852Z,15.10
2022-11-30T00:11:15.615Z,13.20
2022-11-30T00:13:42.359Z,14.32
2022-11-30T00:16:10.108Z,12.98
2022-11-30T00:18:37.377Z,13.27
2022-11-30T00:21:06.210Z,12.75
2022-11-30T00:23:38.518Z,13.25
2022-11-30T00:26:10.638Z,13.00
2022-11-30T00:28:37.656Z,14.02
2022-11-30T00:31:07.255Z,12.70
2022-11-30T00:33:36.543Z,12.57
2022-11-30T00:36:12.165Z,12.95
2022-11-30T00:38:39.359Z,12.65
2022-11-30T00:41:06.281Z,12.45
2022-11-30T00:43:33.315Z,12.98
2022-11-30T00:46:00.094Z,11.63
2022-11-30T00:48:27.251Z,12.60
2022-11-30T00:50:53.958Z,12.60
2022-11-30T00:53:21.574Z,13.20
2022-11-30T00:55:48.753Z,13.40
2022-11-30T00:58:15.976Z,12.43
2022-11-30T01:00:43.226Z,12.77
2022-11-30T01:03:10.359Z,12.20
2022-11-30T01:05:37.124Z,11.32
2022-11-30T01:08:06.618Z,12.13
2022-11-30T01:10:35.091Z,11.02
2022-11-30T01:13:03.127Z,11.25
2022-11-30T01:15:30.646Z,12.15
2022-11-30T01:17:59.265Z,11.18
2022-11-30T01:20:26.023Z,10.65
2022-11-30T01:22:52.723Z,10.57
2022-11-30T01:25:19.411Z,10.80
2022-11-30T01:27:49.076Z,11.60
2022-11-30T01:30:16.282Z,10.95
2022-11-30T01:32:43.068Z,11.98
2022-11-30T01:35:10.496Z,10.73
2022-11-30T01:37:37.212Z,11.45
2022-11-30T01:40:04.870Z,12.23
2022-11-30T01:42:32.926Z,11.68
2022-11-30T01:45:01.374Z,11.63
2022-11-30T01:47:47.680Z,10.85
2022-11-30T01:50:29.429Z,11.95
2022-11-30T01:52:57.674Z,10.77
2022-11-30T01:55:36.130Z,11.43
2022-11-30T01:58:20.008Z,11.40
2022-11-30T02:00:48.127Z,11.82
2022-11-30T02:03:30.351Z,10.70
2022-11-30T02:08:24.196Z,11.02
2022-11-30T02:10:54.696Z,11.18
2022-11-30T02:13:27.226Z,10.98
2022-11-30T02:15:57.585Z,10.80
2022-11-30T02:18:32.342Z,13.07
2022-11-30T02:21:07.040Z,11.88
2022-11-30T02:23:46.682Z,10.93
2022-11-30T02:26:29.429Z,10.13
2022-11-30T02:29:05.345Z,10.65
2022-11-30T02:31:43.266Z,9.18
2022-11-30T02:34:12.251Z,9.48
2022-11-30T02:36:39.036Z,8.27
2022-11-30T02:39:06.968Z,9.13
2022-11-30T02:41:38.998Z,9.75
2022-11-30T02:47:08.786Z,8.57
2022-11-30T02:49:55.795Z,7.75
2022-11-30T02:52:26.281Z,8.35
2022-11-30T02:54:58.507Z,8.23
2022-11-30T02:57:25.196Z,7.90
2022-11-30T02:59:52.152Z,6.85
2022-11-30T03:02:19.184Z,6.82
2022-11-30T03:04:46.262Z,7.30
2022-11-30T03:07:13.234Z,6.85
2022-11-30T03:09:39.942Z,7.25
2022-11-30T03:12:06.813Z,7.32
2022-11-30T03:14:33.492Z,7.03
2022-11-30T03:17:00.324Z,6.30
2022-11-30T03:19:27.064Z,5.57
2022-11-30T03:21:53.798Z,5.82
2022-11-30T03:24:20.583Z,4.95
2022-11-30T03:26:47.353Z,5.22
2022-11-30T03:29:14.127Z,5.53
2022-11-30T03:31:40.807Z,5.50
2022-11-30T03:34:07.548Z,5.30
2022-11-30T03:36:34.258Z,5.65
2022-11-30T03:39:01.088Z,6.18
2022-11-30T03:41:27.934Z,5.68
2022-11-30T03:43:54.666Z,4.70
2022-11-30T03:46:22.738Z,4.95
2022-11-30T03:48:49.435Z,4.65
2022-11-30T03:51:16.168Z,5.53
2022-11-30T03:53:42.887Z,5.43
2022-11-30T03:56:10.835Z,7.55
2022-11-30T03:58:38.855Z,5.00
2022-11-30T04:01:11.674Z,5.55
2022-11-30T04:03:38.778Z,5.35
2022-11-30T04:06:06.998Z,4.80
2022-11-30T04:08:34.391Z,5.00
2022-11-30T04:11:02.283Z,4.90
2022-11-30T04:13:29.907Z,4.30
2022-11-30T04:15:56.809Z,5.28
2022-11-30T04:18:25.711Z,4.47
2022-11-30T04:20:57.088Z,4.10
2022-11-30T04:23:25.316Z,5.43
2022-11-30T04:25:52.291Z,5.35
2022-11-30T04:28:19.507Z,4.90
2022-11-30T04:30:46.342Z,5.43
2022-11-30T04:33:14.723Z,4.57
2022-11-30T04:35:48.338Z,5.03
2022-11-30T04:38:15.055Z,4.50
2022-11-30T04:40:43.067Z,5.18
2022-11-30T04:43:10.851Z,5.65
2022-11-30T04:45:37.862Z,5.53
2022-11-30T04:48:05.823Z,5.03
2022-11-30T04:50:32.709Z,5.95
2022-11-30T04:52:59.486Z,5.25
2022-11-30T04:55:26.572Z,5.07
2022-11-30T04:57:53.354Z,4.80
2022-11-30T05:00:20.590Z,5.15
2022-11-30T05:02:52.535Z,4.97
2022-11-30T05:05:20.495Z,4.57
2022-11-30T05:07:51.628Z,4.60
2022-11-30T05:10:18.525Z,4.43
2022-11-30T05:12:45.376Z,4.55
2022-11-30T05:15:12.141Z,4.82
2022-11-30T05:17:39.230Z,4.43
2022-11-30T05:20:06.647Z,4.82
2022-11-30T05:22:35.144Z,4.93
2022-11-30T05:25:02.971Z,6.75
2022-11-30T05:27:29.732Z,9.73
2022-11-30T05:29:56.442Z,10.52
2022-11-30T05:32:23.161Z,11.70
2022-11-30T05:34:51.616Z,12.52
2022-11-30T05:37:19.596Z,14.05
2022-11-30T05:39:46.626Z,13.02
2022-11-30T05:42:13.475Z,13.82
2022-11-30T05:44:40.215Z,13.80
2022-11-30T05:47:06.951Z,11.88
2022-11-30T05:49:33.659Z,14.48
2022-11-30T05:52:00.676Z,14.00
2022-11-30T05:54:27.379Z,13.23
2022-11-30T05:56:55.146Z,14.90
2022-11-30T05:59:22.910Z,13.85
2022-11-30T06:01:52.263Z,13.90
2022-11-30T06:04:19.374Z,14.68
2022-11-30T06:06:46.258Z,14.20
2022-11-30T06:09:12.965Z,14.93
2022-11-30T06:11:39.710Z,15.07
2022-11-30T06:14:06.463Z,13.77
2022-11-30T06:16:33.263Z,14.55
2022-11-30T06:19:00.109Z,14.77
2022-11-30T06:21:26.798Z,15.10
2022-11-30T06:23:53.611Z,15.48
2022-11-30T06:26:20.288Z,16.90
2022-11-30T06:28:48.749Z,15.75
2022-11-30T06:31:16.710Z,15.38
2022-11-30T06:33:43.726Z,16.23
2022-11-30T06:36:10.807Z,14.70
2022-11-30T06:38:37.635Z,14.98
2022-11-30T06:41:09.696Z,15.40
2022-11-30T06:46:05.009Z,15.27
2022-11-30T06:48:31.810Z,12.90
2022-11-30T06:50:58.930Z,12.18
2022-11-30T06:53:26.306Z,10.70
2022-11-30T06:55:53.298Z,11.20
2022-11-30T06:58:20.076Z,11.93
2022-11-30T07:00:47.028Z,13.88
2022-11-30T07:03:14.041Z,12.50
2022-11-30T07:05:44.116Z,10.75
2022-11-30T07:08:12.327Z,10.63
2022-11-30T07:10:43.488Z,12.20
2022-11-30T07:13:12.010Z,11.27
2022-11-30T07:15:39.967Z,11.48
2022-11-30T07:18:07.367Z,11.25
2022-11-30T07:20:34.219Z,12.30
2022-11-30T07:23:20.997Z,11.55
2022-11-30T07:26:07.941Z,12.35
2022-11-30T07:28:39.339Z,12.45
2022-11-30T07:31:30.147Z,12.50
2022-11-30T07:33:58.343Z,11.48
2022-11-30T07:36:27.109Z,12.60
2022-11-30T07:38:54.721Z,12.73
2022-11-30T07:41:21.957Z,11.75
2022-11-30T07:43:48.638Z,13.35
2022-11-30T07:46:16.844Z,11.02
2022-11-30T07:48:44.777Z,13.57
2022-11-30T07:51:22.059Z,11.68
2022-11-30T07:53:49.809Z,12.30
2022-11-30T07:56:18.920Z,12.50
2022-11-30T07:58:46.251Z,12.43
2022-11-30T08:01:18.788Z,13.20
2022-11-30T08:03:45.895Z,12.98
2022-11-30T08:06:15.291Z,12.82
2022-11-30T08:08:45.887Z,13.18
2022-11-30T08:11:16.008Z,13.75
2022-11-30T08:13:43.012Z,13.50
2022-11-30T08:16:12.765Z,13.77
2022-11-30T08:18:40.417Z,13.25
2022-11-30T08:21:08.671Z,14.25
2022-11-30T08:23:41.763Z,14.65
2022-11-30T08:26:12.370Z,14.68
2022-11-30T08:28:39.748Z,14.18
2022-11-30T08:31:09.504Z,13.45
2022-11-30T08:33:37.434Z,13.90
2022-11-30T08:36:12.378Z,15.18
2022-11-30T08:38:41.188Z,14.32
2022-11-30T08:41:09.989Z,14.27
2022-11-30T08:43:36.981Z,14.35
2022-11-30T08:46:21.218Z,13.23
2022-11-30T08:49:02.376Z,13.48
2022-11-30T08:52:08.875Z,13.00
2022-11-30T08:54:27.299Z,14.32
2022-11-30T08:56:54.066Z,14.98
2022-11-30T08:59:20.980Z,15.45
2022-11-30T09:01:47.648Z,16.58
2022-11-30T09:04:14.366Z,15.93
2022-11-30T09:06:41.980Z,15.65
2022-11-30T09:09:08.687Z,15.35
2022-11-30T09:11:35.622Z,16.10
2022-11-30T09:14:05.176Z,16.00
2022-11-30T09:16:32.355Z,15.43
2022-11-30T09:18:59.130Z,16.00
2022-11-30T09:21:27.484Z,16.40
2022-11-30T09:23:56.361Z,16.27
2022-11-30T09:26:25.192Z,14.75
2022-11-30T09:28:53.423Z,15.68
2022-11-30T09:31:24.920Z,15.48
2022-11-30T09:33:52.764Z,13.75
2022-11-30T09:36:21.664Z,14.15
2022-11-30T09:38:49.090Z,14.68
2022-11-30T09:41:35.705Z,13.90
2022-11-30T09:44:24.518Z,13.40
2022-11-30T09:47:20.263Z,12.73
2022-11-30T09:49:48.791Z,15.13
2022-11-30T09:52:26.222Z,14.70
2022-11-30T09:54:53.999Z,13.52
2022-11-30T09:57:31.514Z,13.75
2022-11-30T10:00:00.793Z,14.98
2022-11-30T10:02:32.547Z,13.90
2022-11-30T10:05:00.513Z,14.57
2022-11-30T10:07:51.737Z,13.48
2022-11-30T10:10:32.647Z,13.65
2022-11-30T10:13:03.152Z,15.02
2022-11-30T10:15:48.422Z,14.50
2022-11-30T10:18:41.993Z,15.55
2022-11-30T10:21:27.870Z,14.30
2022-11-30T10:24:08.503Z,14.27
2022-11-30T10:26:38.283Z,13.13
2022-11-30T10:29:24.945Z,14.25
2022-11-30T10:31:57.569Z,13.55
2022-11-30T10:34:36.107Z,13.45
2022-11-30T10:37:17.728Z,14.30
2022-11-30T10:40:12.166Z,15.27
2022-11-30T10:42:53.303Z,16.20
2022-11-30T10:45:24.311Z,14.50
2022-11-30T10:48:07.784Z,14.13
2022-11-30T10:50:34.707Z,14.68
2022-11-30T10:53:01.681Z,16.17
2022-11-30T10:55:31.892Z,14.95
2022-11-30T10:58:10.068Z,14.93
2022-11-30T11:00:36.822Z,14.13
2022-11-30T11:03:21.279Z,16.25
2022-11-30T11:05:48.108Z,16.13
2022-11-30T11:08:25.071Z,16.45
2022-11-30T11:10:51.786Z,15.32
2022-11-30T11:13:35.040Z,15.90
2022-11-30T11:16:03.386Z,15.10
2022-11-30T11:18:34.497Z,16.27
2022-11-30T11:21:07.735Z,15.50
2022-11-30T11:23:45.038Z,16.10
2022-11-30T11:26:26.318Z,17.15
2022-11-30T11:28:55.298Z,17.73
2022-11-30T11:31:46.424Z,17.33
2022-11-30T11:34:25.741Z,17.80
2022-11-30T11:37:05.927Z,18.17
2022-11-30T11:39:32.667Z,17.27
2022-11-30T11:42:00.462Z,19.75
2022-11-30T11:44:28.043Z,18.33
2022-11-30T11:47:00.980Z,17.55
2022-11-30T11:49:30.194Z,19.27
2022-11-30T11:52:22.563Z,18.92
2022-11-30T11:57:21.337Z,17.60
2022-11-30T12:00:00.871Z,18.70
2022-11-30T12:02:46.852Z,21.05
2022-11-30T12:05:19.723Z,19.90
2022-11-30T12:08:03.996Z,20.20
2022-11-30T12:11:05.119Z,20.75
2022-11-30T12:13:39.815Z,18.17
2022-11-30T12:16:15.478Z,18.58
2022-11-30T12:19:00.340Z,18.70
2022-11-30T12:21:36.025Z,21.17
2022-11-30T12:24:02.695Z,20.17
2022-11-30T12:26:41.713Z,19.08
2022-11-30T12:29:39.158Z,19.90
2022-11-30T12:32:30.969Z,20.10
2022-11-30T12:35:06.678Z,19.95
2022-11-30T12:37:47.711Z,20.63
2022-11-30T12:40:32.636Z,19.75
2022-11-30T12:43:38.021Z,18.00
2022-11-30T12:46:34.349Z,18.48
2022-11-30T12:49:09.731Z,19.52
2022-11-30T12:51:48.011Z,18.63
2022-11-30T12:54:35.986Z,19.10
2022-11-30T12:57:26.033Z,18.92
2022-11-30T13:00:00.697Z,18.50
2022-11-30T13:02:45.480Z,18.35
2022-11-30T13:05:21.211Z,19.27
2022-11-30T13:08:07.790Z,17.80
2022-11-30T13:10:41.545Z,17.65
2022-11-30T13:13:16.206Z,18.55
2022-11-30T13:15:44.459Z,17.85
2022-11-30T13:18:21.977Z,16.90
2022-11-30T13:21:19.322Z,16.15
2022-11-30T13:24:20.215Z,17.73
2022-11-30T13:27:03.522Z,17.27
2022-11-30T13:30:03.484Z,16.73
2022-11-30T13:32:57.423Z,15.27
2022-11-30T13:35:30.045Z,17.13
2022-11-30T13:38:35.311Z,16.83
2022-11-30T13:40:57.440Z,16.92
2022-11-30T13:43:27.484Z,16.02
2022-11-30T13:46:11.856Z,17.35
2022-11-30T13:48:40.925Z,18.00
2022-11-30T13:51:08.259Z,18.85
2022-11-30T13:53:37.221Z,19.30
2022-11-30T13:56:34.059Z,17.42
2022-11-30T13:59:45.139Z,18.23
2022-11-30T14:02:30.591Z,19.30
2022-11-30T14:05:20.112Z,17.25
2022-11-30T14:08:06.940Z,19.20
2022-11-30T14:10:34.922Z,20.65
2022-11-30T14:13:09.369Z,21.23
2022-11-30T14:15:39.042Z,21.20
2022-11-30T14:18:08.475Z,19.80
2022-11-30T14:21:03.172Z,21.88
2022-11-30T14:23:41.278Z,21.30
2022-11-30T14:26:17.414Z,21.58
2022-11-30T14:28:51.731Z,21.40
2022-11-30T14:31:23.957Z,21.90
2022-11-30T14:36:21.897Z,22.23
2022-11-30T14:38:48.929Z,22.67
2022-11-30T14:41:25.486Z,24.55
2022-11-30T14:44:11.936Z,24.88
2022-11-30T14:46:39.351Z,23.60
2022-11-30T14:49:14.393Z,24.27
2022-11-30T14:51:44.740Z,23.33
2022-11-30T14:54:30.428Z,23.80
2022-11-30T14:57:07.287Z,23.33
2022-11-30T14:59:50.210Z,24.80
2022-11-30T15:02:25.808Z,25.65
2022-11-30T15:04:54.348Z,24.50
2022-11-30T15:07:22.898Z,24.02
2022-11-30T15:09:53.912Z,23.27
2022-11-30T15:12:24.061Z,23.85
2022-11-30T15:15:06.056Z,25.27
2022-11-30T15:17:32.956Z,25.15
2022-11-30T15:19:59.660Z,25.08
2022-11-30T15:22:34.101Z,23.65
2022-11-30T15:25:00.970Z,23.30
2022-11-30T15:27:27.861Z,23.65
2022-11-30T15:29:59.720Z,23.27
2022-11-30T15:32:26.989Z,24.30
2022-11-30T15:34:56.978Z,24.00
2022-11-30T15:37:32.176Z,21.60
2022-11-30T15:40:01.675Z,23.42
2022-11-30T15:42:43.984Z,20.88
2022-11-30T15:47:59.971Z,23.17
2022-11-30T15:50:26.714Z,22.35
2022-11-30T15:52:55.469Z,21.63
2022-11-30T15:55:41.048Z,24.63
2022-11-30T15:58:50.252Z,21.60
2022-11-30T16:01:20.777Z,21.00
2022-11-30T16:03:59.261Z,24.10
2022-11-30T16:06:27.392Z,23.15
2022-11-30T16:08:56.014Z,23.77
2022-11-30T16:11:22.865Z,23.70
2022-11-30T16:13:49.697Z,24.60
2022-11-30T16:16:28.306Z,24.60
2022-11-30T16:18:55.199Z,23.60
2022-11-30T16:21:21.976Z,22.05
2022-11-30T16:23:49.067Z,25.23
2022-11-30T16:29:05.177Z,22.70
2022-11-30T16:31:32.283Z,25.38
2022-11-30T16:33:59.054Z,25.33
2022-11-30T16:36:25.855Z,24.42
2022-11-30T16:38:53.414Z,23.45
2022-11-30T16:41:28.408Z,25.38
2022-11-30T16:43:56.469Z,25.92
2022-11-30T16:46:25.573Z,23.42
2022-11-30T16:48:53.252Z,23.15
2022-11-30T16:51:28.239Z,23.52
2022-11-30T16:53:55.649Z,24.13
2022-11-30T16:56:23.198Z,23.67
2022-11-30T16:58:50.100Z,23.98
2022-11-30T17:01:35.602Z,23.58
2022-11-30T17:04:24.342Z,23.48
2022-11-30T17:06:54.674Z,24.35
2022-11-30T17:09:24.221Z,23.17
2022-11-30T17:11:51.408Z,22.45
2022-11-30T17:14:19.420Z,21.30
2022-11-30T17:16:46.162Z,23.73
2022-11-30T17:19:12.978Z,24.85
2022-11-30T17:21:40.300Z,26.98
2022-11-30T17:24:07.209Z,28.67
2022-11-30T17:26:34.152Z,25.27
2022-11-30T17:29:00.877Z,24.75
2022-11-30T17:31:27.835Z,23.65
2022-11-30T17:33:54.643Z,27.70
2022-11-30T17:36:21.466Z,29.77
2022-11-30T17:38:48.177Z,27.15
2022-11-30T17:41:19.465Z,25.27
2022-11-30T17:43:47.107Z,26.30
2022-11-30T17:46:15.997Z,26.52
2022-11-30T17:48:43.657Z,26.75
2022-11-30T17:51:11.014Z,25.77
2022-11-30T17:53:38.927Z,25.83
2022-11-30T17:56:08.614Z,24.88
2022-11-30T17:58:43.050Z,26.98
2022-11-30T18:01:23.159Z,24.05
2022-11-30T18:03:50.291Z,24.98
2022-11-30T18:06:17.284Z,24.35
2022-11-30T18:08:44.747Z,25.30
2022-11-30T18:11:16.899Z,25.08
2022-11-30T18:16:14.114Z,24.45
2022-11-30T18:18:45.956Z,23.02
2022-11-30T18:21:16.509Z,25.23
2022-11-30T18:23:43.358Z,28.08
2022-11-30T18:26:13.722Z,27.10
2022-11-30T18:28:40.680Z,22.25
2022-11-30T18:31:07.712Z,24.88
2022-11-30T18:33:35.859Z,23.92
2022-11-30T18:36:07.273Z,22.98
2022-11-30T18:38:37.870Z,23.35
2022-11-30T18:41:05.830Z,23.93
2022-11-30T18:43:33.654Z,23.38
2022-11-30T18:46:05.231Z,21.65
2022-11-30T18:48:32.005Z,21.20
2022-11-30T18:50:58.716Z,23.65
2022-11-30T18:53:25.584Z,21.75
2022-11-30T18:55:52.300Z,21.90
2022-11-30T18:58:19.007Z,23.13
2022-11-30T19:00:45.726Z,22.80
2022-11-30T19:03:12.421Z,23.13
2022-11-30T19:05:40.434Z,22.27
2022-11-30T19:08:11.279Z,22.70
2022-11-30T19:10:39.755Z,21.73
2022-11-30T19:13:07.684Z,22.58
2022-11-30T19:15:39.494Z,21.58
2022-11-30T19:18:06.905Z,22.17
2022-11-30T19:20:40.815Z,20.70
2022-11-30T19:23:07.750Z,20.90
2022-11-30T19:25:34.551Z,21.55
2022-11-30T19:28:01.306Z,22.55
2022-11-30T19:30:28.129Z,22.05
2022-11-30T19:32:55.024Z,21.95
2022-11-30T19:35:23.047Z,21.63
2022-11-30T19:37:52.253Z,24.30
2022-11-30T19:40:19.227Z,21.30
2022-11-30T19:42:46.136Z,20.17
2022-11-30T19:45:13.060Z,21.80
2022-11-30T19:47:39.777Z,21.55
2022-11-30T19:50:07.075Z,21.92
2022-11-30T19:52:33.913Z,23.42
2022-11-30T19:55:00.599Z,23.30
2022-11-30T19:57:27.312Z,22.10
2022-11-30T19:59:54.144Z,29.15
2022-11-30T20:02:21.124Z,22.02
2022-11-30T20:04:48.306Z,19.45
2022-11-30T20:07:15.363Z,21.60
2022-11-30T20:09:42.109Z,20.48
2022-11-30T20:12:08.851Z,22.70
2022-11-30T20:14:36.784Z,20.58
2022-11-30T20:17:03.776Z,20.35
2022-11-30T20:19:31.591Z,19.38
2022-11-30T20:21:59.447Z,18.50
2022-11-30T20:24:26.506Z,18.90
2022-11-30T20:26:53.373Z,17.58
2022-11-30T20:29:20.059Z,19.73
2022-11-30T20:31:48.353Z,19.95
2022-11-30T20:34:16.099Z,18.75
2022-11-30T20:36:42.958Z,19.10
2022-11-30T20:39:11.360Z,19.50
2022-11-30T20:41:38.483Z,19.95
2022-11-30T20:44:05.543Z,16.98
2022-11-30T20:46:34.922Z,20.25
2022-11-30T20:49:14.242Z,18.05
2022-11-30T20:51:41.193Z,18.35
2022-11-30T20:54:08.053Z,18.77
2022-11-30T20:56:36.960Z,17.98
2022-11-30T20:59:12.239Z,18.33
2022-11-30T21:01:41.440Z,20.20
2022-11-30T21:04:08.163Z,18.40
2022-11-30T21:06:34.879Z,19.13
2022-11-30T21:09:02.077Z,19.63
2022-11-30T21:11:29.772Z,20.15
2022-11-30T21:13:57.410Z,18.92
2022-11-30T21:16:28.711Z,17.77
2022-11-30T21:19:00.648Z,19.33
2022-11-30T21:21:30.777Z,18.17
2022-11-30T21:24:02.949Z,17.75
2022-11-30T21:29:07.521Z,17.52
2022-11-30T21:31:35.388Z,15.82
2022-11-30T21:34:02.511Z,17.10
2022-11-30T21:36:29.660Z,17.55
2022-11-30T21:39:05.146Z,15.88
2022-11-30T21:41:36.669Z,17.83
2022-11-30T21:44:04.222Z,15.60
2022-11-30T21:46:31.492Z,17.23
2022-11-30T21:48:58.502Z,15.38
2022-11-30T21:51:27.868Z,15.77
2022-11-30T21:53:57.558Z,16.20
2022-11-30T21:56:27.938Z,14.90
2022-11-30T21:58:55.548Z,14.55
2022-11-30T22:01:31.639Z,15.75
2022-11-30T22:03:59.993Z,15.20
2022-11-30T22:06:28.739Z,15.00
2022-11-30T22:09:03.185Z,15.55
2022-11-30T22:11:30.913Z,14.70
2022-11-30T22:13:57.716Z,15.70
2022-11-30T22:16:29.895Z,16.15
2022-11-30T22:19:01.047Z,15.65
2022-11-30T22:21:29.828Z,15.13
2022-11-30T22:23:59.030Z,14.73
2022-11-30T22:26:28.652Z,15.93
2022-11-30T22:29:03.168Z,15.10
2022-11-30T22:31:34.620Z,15.48
2022-11-30T22:34:01.826Z,14.13
2022-11-30T22:36:30.645Z,16.60
2022-11-30T22:38:59.893Z,16.50
2022-11-30T22:41:29.496Z,15.77
2022-11-30T22:43:57.646Z,16.67
2022-11-30T22:46:29.610Z,14.63
2022-11-30T22:51:27.448Z,13.88
2022-11-30T22:53:55.949Z,14.07
2022-11-30T22:56:25.102Z,13.93
2022-11-30T22:58:56.726Z,14.73
2022-11-30T23:01:26.019Z,13.75
2022-11-30T23:03:56.241Z,13.15
2022-11-30T23:06:24.254Z,12.60
2022-11-30T23:08:51.976Z,12.75
2022-11-30T23:11:21.636Z,13.82
2022-11-30T23:13:48.613Z,14.38
2022-11-30T23:16:15.726Z,13.60
2022-11-30T23:18:48.477Z,13.40
2022-11-30T23:21:18.203Z,13.23
2022-11-30T23:23:45.655Z,13.02
2022-11-30T23:26:28.411Z,16.10
2022-11-30T23:28:58.570Z,13.93
2022-11-30T23:31:34.037Z,15.82
2022-11-30T23:34:06.782Z,14.43
2022-11-30T23:36:34.826Z,14.45
2022-11-30T23:39:05.288Z,13.27
2022-11-30T23:41:33.087Z,15.05
2022-11-30T23:44:00.006Z,14.52
2022-11-30T23:46:26.792Z,16.58
2022-11-30T23:48:54.846Z,16.33
2022-11-30T23:51:22.505Z,18.45
2022-11-30T23:53:49.319Z,15.68
2022-11-30T23:56:17.679Z,19.13
2022-11-30T23:58:45.197Z,17.58
